Time;durP1;ratioP1;P1;durP2;ratioP2;P2;SDS_P1;SDS_P2;PMS_P1;PMS_P2;Temp;Humidity;BMP_temperature;BMP_pressure;BME280_temperature;BME280_humidity;BME280_pressure;Samples;Min_cycle;Max_cycle;Signal;HPM_P1;HPM_P2
2022/08/30 00:03:24;;;;;;;12.10;6.50;;;;;;;;;;5023579;28;20056;-70
2022/08/30 00:05:49;;;;;;;10.13;6.35;;;;;;;;;;5018417;28;20018;-71
2022/08/30 00:08:15;;;;;;;9.52;5.82;;;;;;;;;;5017176;28;20033;-74
2022/08/30 00:10:40;;;;;;;10.55;6.05;;;;;;;;;;5015066;28;20434;-74
2022/08/30 00:13:06;;;;;;;9.32;6.38;;;;;;;;;;5018171;28;20084;-75
2022/08/30 00:15:32;;;;;;;8.73;6.65;;;;;;;;;;5017625;28;20105;-73
2022/08/30 00:17:57;;;;;;;11.15;6.90;;;;;;;;;;5017265;28;20113;-75
2022/08/30 00:20:24;;;;;;;13.40;6.88;;;;;;;;;;5020618;28;20580;-76
2022/08/30 00:22:49;;;;;;;13.45;7.03;;;;;;;;;;5021547;28;20505;-74
2022/08/30 00:25:15;;;;;;;10.43;6.43;;;;;;;;;;5025430;28;20025;-73
2022/08/30 00:27:41;;;;;;;10.63;7.40;;;;;;;;;;5016285;28;20064;-74
2022/08/30 00:30:07;;;;;;;10.05;6.47;;;;;;;;;;5021294;28;20043;-76
2022/08/30 00:32:32;;;;;;;8.32;6.55;;;;;;;;;;5018043;28;20029;-75
2022/08/30 00:34:57;;;;;;;10.65;5.90;;;;;;;;;;5015241;28;20038;-71
2022/08/30 00:37:23;;;;;;;8.97;7.07;;;;;;;;;;5009502;28;20466;-74
2022/08/30 00:39:48;;;;;;;12.32;8.50;;;;;;;;;;5020626;28;20274;-74
2022/08/30 00:42:13;;;;;;;8.95;6.28;;;;;;;;;;5016556;28;20029;-75
2022/08/30 00:44:39;;;;;;;12.40;7.43;;;;;;;;;;5022673;28;20434;-76
2022/08/30 00:47:05;;;;;;;8.95;7.10;;;;;;;;;;5013957;28;20116;-72
2022/08/30 00:49:31;;;;;;;11.75;6.85;;;;;;;;;;5018666;28;20485;-75
2022/08/30 00:51:56;;;;;;;10.20;6.65;;;;;;;;;;5018245;28;20026;-74
2022/08/30 00:54:24;;;;;;;10.48;7.00;;;;;;;;;;5020691;28;20033;-76
2022/08/30 00:56:50;;;;;;;9.52;7.03;;;;;;;;;;5018566;28;20026;-74
2022/08/30 00:59:15;;;;;;;9.93;6.70;;;;;;;;;;5022020;28;20075;-74
2022/08/30 01:01:41;;;;;;;13.43;8.52;;;;;;;;;;5016143;28;20032;-74
2022/08/30 01:04:07;;;;;;;9.43;6.53;;;;;;;;;;5014990;28;20116;-71
2022/08/30 01:06:33;;;;;;;9.40;7.35;;;;;;;;;;5015217;28;20041;-74
2022/08/30 01:08:59;;;;;;;13.27;7.25;;;;;;;;;;5018860;28;20033;-72
2022/08/30 01:11:24;;;;;;;7.88;6.32;;;;;;;;;;5016032;28;20029;-75
2022/08/30 01:13:50;;;;;;;11.38;6.80;;;;;;;;;;5015474;28;20104;-74
2022/08/30 01:16:15;;;;;;;10.52;6.88;;;;;;;;;;5020178;28;20028;-70
2022/08/30 01:18:41;;;;;;;7.78;6.43;;;;;;;;;;5020689;28;20029;-74
2022/08/30 01:21:07;;;;;;;11.25;7.22;;;;;;;;;;5020101;28;20472;-75
2022/08/30 01:23:33;;;;;;;9.70;7.25;;;;;;;;;;5025007;28;20056;-75
2022/08/30 01:25:59;;;;;;;9.27;6.47;;;;;;;;;;5025746;28;20041;-74
2022/08/30 01:28:26;;;;;;;8.10;5.50;;;;;;;;;;5019976;28;20021;-74
2022/08/30 01:30:52;;;;;;;9.13;6.65;;;;;;;;;;5019346;28;20029;-76
2022/08/30 01:33:21;;;;;;;10.90;6.10;;;;;;;;;;5019208;28;20033;-73
2022/08/30 01:35:52;;;;;;;9.00;5.72;;;;;;;;;;5035575;28;20037;-76
2022/08/30 01:38:19;;;;;;;7.70;6.13;;;;;;;;;;5017170;28;20064;-75
2022/08/30 01:40:45;;;;;;;6.95;5.78;;;;;;;;;;5018566;28;20029;-74
2022/08/30 01:43:11;;;;;;;8.82;6.72;;;;;;;;;;5018656;28;20075;-72
2022/08/30 01:45:36;;;;;;;9.38;6.30;;;;;;;;;;5018904;28;20364;-74
2022/08/30 01:48:02;;;;;;;7.70;5.60;;;;;;;;;;5015514;28;20028;-73
2022/08/30 01:50:27;;;;;;;12.77;6.22;;;;;;;;;;5020764;28;20025;-74
2022/08/30 01:52:52;;;;;;;10.57;6.15;;;;;;;;;;5016890;28;20037;-74
2022/08/30 01:55:18;;;;;;;9.35;6.07;;;;;;;;;;5027959;28;20114;-73
2022/08/30 01:57:43;;;;;;;10.68;6.60;;;;;;;;;;5022328;28;20378;-71
2022/08/30 02:00:09;;;;;;;9.13;5.80;;;;;;;;;;5018012;28;20029;-75
2022/08/30 02:02:34;;;;;;;6.47;5.35;;;;;;;;;;5016981;28;20491;-76
2022/08/30 02:05:00;;;;;;;8.80;6.60;;;;;;;;;;5016387;28;20043;-74
2022/08/30 02:07:25;;;;;;;10.73;6.43;;;;;;;;;;5016412;28;20038;-71
2022/08/30 02:09:52;;;;;;;9.27;6.28;;;;;;;;;;5017321;28;20040;-74
2022/08/30 02:12:18;;;;;;;8.60;6.00;;;;;;;;;;5016504;28;20037;-73
2022/08/30 02:14:43;;;;;;;7.63;6.10;;;;;;;;;;5014730;28;20030;-72
2022/08/30 02:17:09;;;;;;;7.72;5.80;;;;;;;;;;5013766;28;20661;-74
2022/08/30 02:19:34;;;;;;;8.27;6.38;;;;;;;;;;5015467;28;20037;-74
2022/08/30 02:22:00;;;;;;;8.57;7.07;;;;;;;;;;5018657;28;20144;-70
2022/08/30 02:24:25;;;;;;;10.93;7.43;;;;;;;;;;5018389;28;20037;-75
2022/08/30 02:26:52;;;;;;;9.40;7.05;;;;;;;;;;5016999;28;20053;-74
2022/08/30 02:29:17;;;;;;;8.93;5.85;;;;;;;;;;5018696;28;20029;-72
2022/08/30 02:31:42;;;;;;;19.67;6.00;;;;;;;;;;5016428;28;20059;-71
2022/08/30 02:34:07;;;;;;;9.30;6.40;;;;;;;;;;5017153;28;20405;-76
2022/08/30 02:36:33;;;;;;;7.28;6.05;;;;;;;;;;5019203;28;20116;-75
2022/08/30 02:38:58;;;;;;;8.63;6.53;;;;;;;;;;5022378;28;20473;-75
2022/08/30 02:41:23;;;;;;;9.00;6.28;;;;;;;;;;5017993;28;20297;-75
2022/08/30 02:43:50;;;;;;;8.77;6.32;;;;;;;;;;5015185;28;20022;-74
2022/08/30 02:46:15;;;;;;;10.90;6.53;;;;;;;;;;5014065;28;20083;-74
2022/08/30 02:48:40;;;;;;;10.52;6.70;;;;;;;;;;5018546;28;20125;-76
2022/08/30 02:51:07;;;;;;;11.43;6.90;;;;;;;;;;5018411;28;20080;-73
2022/08/30 02:53:32;;;;;;;11.32;6.45;;;;;;;;;;5017873;28;20025;-76
2022/08/30 02:55:57;;;;;;;11.02;6.50;;;;;;;;;;5015289;28;20132;-73
2022/08/30 02:58:22;;;;;;;8.23;6.05;;;;;;;;;;5016527;28;20018;-75
2022/08/30 03:00:48;;;;;;;9.88;6.30;;;;;;;;;;5018086;28;20113;-74
2022/08/30 03:03:13;;;;;;;10.32;6.75;;;;;;;;;;5014265;28;20034;-71
2022/08/30 03:05:38;;;;;;;10.25;6.45;;;;;;;;;;5012447;28;20041;-74
2022/08/30 03:08:04;;;;;;;8.33;7.27;;;;;;;;;;5012510;28;20052;-75
2022/08/30 03:10:29;;;;;;;7.38;6.53;;;;;;;;;;5019861;28;20286;-74
2022/08/30 03:12:54;;;;;;;8.48;5.88;;;;;;;;;;5021929;28;20017;-76
2022/08/30 03:15:20;;;;;;;9.18;6.85;;;;;;;;;;5021804;28;20473;-72
2022/08/30 03:17:45;;;;;;;9.45;6.60;;;;;;;;;;5020453;28;20025;-75
2022/08/30 03:20:11;;;;;;;7.75;5.88;;;;;;;;;;5022078;28;20029;-71
2022/08/30 03:22:36;;;;;;;12.43;7.00;;;;;;;;;;5018292;28;20038;-74
2022/08/30 03:25:02;;;;;;;12.88;7.57;;;;;;;;;;5020672;28;20036;-72
2022/08/30 03:27:28;;;;;;;7.50;6.22;;;;;;;;;;5022634;28;20048;-75
2022/08/30 03:29:53;;;;;;;10.48;7.32;;;;;;;;;;5020952;28;20054;-74
2022/08/30 03:32:19;;;;;;;9.68;6.47;;;;;;;;;;5022602;28;20031;-72
2022/08/30 03:34:44;;;;;;;9.93;6.95;;;;;;;;;;5017604;28;20131;-75
2022/08/30 03:37:09;;;;;;;10.73;7.00;;;;;;;;;;5022148;28;20489;-74
2022/08/30 03:39:35;;;;;;;9.50;6.05;;;;;;;;;;5019501;28;20029;-74
2022/08/30 03:42:00;;;;;;;8.43;6.57;;;;;;;;;;5014102;28;20179;-74
2022/08/30 03:44:25;;;;;;;9.95;6.45;;;;;;;;;;5020968;28;20061;-75
2022/08/30 03:46:51;;;;;;;8.00;7.20;;;;;;;;;;5019472;28;20167;-75
2022/08/30 03:49:16;;;;;;;10.90;6.55;;;;;;;;;;5019009;28;20316;-74
2022/08/30 03:51:42;;;;;;;10.05;6.53;;;;;;;;;;5014744;28;20436;-76
2022/08/30 03:54:08;;;;;;;7.30;5.88;;;;;;;;;;5023359;28;20049;-71
2022/08/30 03:56:33;;;;;;;16.95;7.00;;;;;;;;;;5017918;28;20487;-74
2022/08/30 03:58:58;;;;;;;9.70;6.15;;;;;;;;;;5022364;28;20017;-75
2022/08/30 04:01:24;;;;;;;8.23;6.18;;;;;;;;;;5013735;28;20137;-74
2022/08/30 04:03:49;;;;;;;10.05;6.97;;;;;;;;;;5016691;28;20029;-73
2022/08/30 04:06:14;;;;;;;9.02;6.55;;;;;;;;;;5017722;28;20121;-70
2022/08/30 04:08:39;;;;;;;8.93;6.43;;;;;;;;;;5020238;28;20049;-76
2022/08/30 04:11:05;;;;;;;13.95;7.65;;;;;;;;;;5016660;28;20033;-74
2022/08/30 04:13:31;;;;;;;12.95;6.95;;;;;;;;;;5019108;28;20097;-76
2022/08/30 04:15:56;;;;;;;10.63;6.90;;;;;;;;;;5021919;28;20156;-74
2022/08/30 04:18:21;;;;;;;13.43;8.05;;;;;;;;;;5019961;28;20623;-76
2022/08/30 04:20:46;;;;;;;11.07;7.43;;;;;;;;;;5019293;28;20465;-74
2022/08/30 04:23:12;;;;;;;10.30;7.45;;;;;;;;;;5019735;28;20029;-74
2022/08/30 04:25:37;;;;;;;12.52;7.57;;;;;;;;;;5018342;28;20045;-70
2022/08/30 04:28:03;;;;;;;8.90;7.03;;;;;;;;;;5017188;28;20045;-75
2022/08/30 04:30:28;;;;;;;10.68;7.07;;;;;;;;;;5021760;28;20037;-74
2022/08/30 04:32:54;;;;;;;12.00;7.47;;;;;;;;;;5016286;28;20026;-74
2022/08/30 04:35:19;;;;;;;10.93;7.47;;;;;;;;;;5017477;28;20052;-74
2022/08/30 04:37:44;;;;;;;12.27;7.03;;;;;;;;;;5019185;28;20017;-74
2022/08/30 04:40:09;;;;;;;10.50;7.05;;;;;;;;;;5020830;28;20701;-74
2022/08/30 04:42:35;;;;;;;9.35;7.20;;;;;;;;;;5016095;28;20036;-74
2022/08/30 04:45:01;;;;;;;14.43;7.60;;;;;;;;;;5017584;28;20490;-74
2022/08/30 04:47:26;;;;;;;11.70;7.20;;;;;;;;;;5006650;28;20536;-72
2022/08/30 04:49:52;;;;;;;14.48;8.43;;;;;;;;;;5011994;28;20029;-73
2022/08/30 04:52:18;;;;;;;15.00;8.10;;;;;;;;;;5017435;28;20043;-71
2022/08/30 04:54:43;;;;;;;13.75;7.70;;;;;;;;;;5018451;28;20049;-75
2022/08/30 04:57:08;;;;;;;12.23;7.33;;;;;;;;;;5014456;28;20474;-71
2022/08/30 04:59:33;;;;;;;11.45;6.63;;;;;;;;;;5019577;28;20336;-74
2022/08/30 05:01:59;;;;;;;14.25;7.68;;;;;;;;;;5019714;28;20029;-74
2022/08/30 05:04:24;;;;;;;11.00;7.72;;;;;;;;;;5016403;28;20029;-74
2022/08/30 05:06:49;;;;;;;8.45;6.97;;;;;;;;;;5015107;28;20065;-74
2022/08/30 05:09:15;;;;;;;11.13;7.93;;;;;;;;;;5015603;28;20128;-74
2022/08/30 05:11:42;;;;;;;11.13;8.00;;;;;;;;;;5017222;28;20022;-74
2022/08/30 05:14:07;;;;;;;11.02;8.38;;;;;;;;;;5016591;28;20029;-73
2022/08/30 05:16:32;;;;;;;12.43;8.10;;;;;;;;;;5016511;28;20478;-74
2022/08/30 05:18:57;;;;;;;9.32;6.80;;;;;;;;;;5022706;28;20119;-74
2022/08/30 05:21:25;;;;;;;10.75;7.95;;;;;;;;;;5023247;28;20493;-73
2022/08/30 05:23:52;;;;;;;9.82;7.60;;;;;;;;;;5024394;28;20018;-73
2022/08/30 05:26:19;;;;;;;14.90;8.95;;;;;;;;;;5021674;28;20045;-74
2022/08/30 05:28:45;;;;;;;12.35;7.97;;;;;;;;;;5014445;28;20605;-73
2022/08/30 05:31:20;;;;;;;15.95;7.50;;;;;;;;;;5016288;28;20097;-75
2022/08/30 05:33:46;;;;;;;12.10;8.18;;;;;;;;;;5014993;28;20025;-74
2022/08/30 05:36:13;;;;;;;13.60;9.43;;;;;;;;;;5016367;28;20490;-71
2022/08/30 05:38:39;;;;;;;10.70;8.18;;;;;;;;;;5011472;28;20037;-73
2022/08/30 05:41:04;;;;;;;10.98;7.47;;;;;;;;;;5015453;28;20029;-73
2022/08/30 05:43:29;;;;;;;11.05;7.50;;;;;;;;;;5013240;28;20144;-75
2022/08/30 05:46:02;;;;;;;12.55;7.97;;;;;;;;;;5015177;28;20718;-75
2022/08/30 05:48:28;;;;;;;14.00;9.00;;;;;;;;;;5017316;28;20033;-73
2022/08/30 05:51:02;;;;;;;13.30;9.38;;;;;;;;;;5019596;28;20017;-76
2022/08/30 05:53:28;;;;;;;13.90;9.00;;;;;;;;;;5013567;28;20060;-73
2022/08/30 05:55:53;;;;;;;14.75;8.70;;;;;;;;;;5012233;28;20120;-72
2022/08/30 05:58:18;;;;;;;9.60;5.47;;;;;;;;;;4997101;28;20469;-75
2022/08/30 06:00:43;;;;;;;8.57;4.90;;;;;;;;;;5003643;28;20293;-71
2022/08/30 06:03:11;;;;;;;11.20;7.97;;;;;;;;;;5007974;28;20771;-73
2022/08/30 06:05:36;;;;;;;11.88;7.78;;;;;;;;;;5008125;28;21510;-72
2022/08/30 06:08:01;;;;;;;13.05;8.98;;;;;;;;;;5013814;28;20093;-73
2022/08/30 06:10:27;;;;;;;19.83;8.95;;;;;;;;;;5007914;28;20108;-72
2022/08/30 06:12:52;;;;;;;14.52;6.50;;;;;;;;;;5015007;28;20436;-71
2022/08/30 06:15:17;;;;;;;11.70;8.25;;;;;;;;;;5022506;28;20037;-71
2022/08/30 06:17:42;;;;;;;13.15;6.20;;;;;;;;;;5020635;28;20037;-71
2022/08/30 06:20:08;;;;;;;8.60;6.38;;;;;;;;;;5016912;28;20626;-70
2022/08/30 06:22:33;;;;;;;12.38;6.63;;;;;;;;;;5020582;28;20474;-73
2022/08/30 06:24:59;;;;;;;7.45;5.95;;;;;;;;;;5016197;28;20033;-74
2022/08/30 06:27:24;;;;;;;7.53;5.22;;;;;;;;;;5016565;28;20066;-74
2022/08/30 06:29:50;;;;;;;11.15;5.82;;;;;;;;;;5013152;28;20083;-74
2022/08/30 06:32:15;;;;;;;10.18;5.40;;;;;;;;;;5020070;28;20024;-69
2022/08/30 06:34:40;;;;;;;10.15;6.45;;;;;;;;;;5023662;28;20022;-73
2022/08/30 06:37:06;;;;;;;15.40;7.38;;;;;;;;;;5017156;28;20030;-74
2022/08/30 06:39:31;;;;;;;10.48;8.13;;;;;;;;;;5014513;28;20033;-74
2022/08/30 06:41:56;;;;;;;10.05;7.25;;;;;;;;;;5019251;28;20029;-72
2022/08/30 06:44:21;;;;;;;11.33;8.17;;;;;;;;;;5020784;28;20022;-72
2022/08/30 06:46:46;;;;;;;10.43;6.40;;;;;;;;;;5020917;28;20381;-72
2022/08/30 06:49:12;;;;;;;10.73;6.60;;;;;;;;;;5021008;28;20104;-74
2022/08/30 06:51:38;;;;;;;12.85;7.97;;;;;;;;;;5015032;28;20041;-73
2022/08/30 06:54:04;;;;;;;9.25;6.30;;;;;;;;;;5022503;28;20040;-72
2022/08/30 06:56:29;;;;;;;15.27;8.73;;;;;;;;;;5023580;28;20029;-72
2022/08/30 06:58:54;;;;;;;8.00;6.22;;;;;;;;;;5017473;28;20618;-73
2022/08/30 07:01:22;;;;;;;11.23;7.90;;;;;;;;;;5015891;28;20030;-73
2022/08/30 07:03:47;;;;;;;10.68;6.82;;;;;;;;;;5018612;28;20389;-73
2022/08/30 07:06:13;;;;;;;11.60;6.68;;;;;;;;;;5018227;28;20017;-74
2022/08/30 07:08:38;;;;;;;10.30;6.72;;;;;;;;;;5017435;28;20021;-73
2022/08/30 07:11:04;;;;;;;10.98;7.20;;;;;;;;;;5022880;28;20033;-73
2022/08/30 07:13:30;;;;;;;11.15;6.50;;;;;;;;;;5017166;28;20036;-74
2022/08/30 07:15:55;;;;;;;8.27;5.38;;;;;;;;;;5019114;28;20038;-74
2022/08/30 07:21:06;;;;;;;23.92;6.75;;;;;;;;;;5010217;28;20044;-71
2022/08/30 07:23:31;;;;;;;25.13;7.82;;;;;;;;;;5011623;28;20086;-73
2022/08/30 07:25:57;;;;;;;23.35;5.78;;;;;;;;;;5016239;28;20482;-72
2022/08/30 07:28:22;;;;;;;48.92;8.45;;;;;;;;;;5020994;28;20029;-71
2022/08/30 07:30:47;;;;;;;277.90;27.77;;;;;;;;;;5013324;28;20025;-74
2022/08/30 07:33:12;;;;;;;28.10;8.77;;;;;;;;;;5014735;28;20072;-74
2022/08/30 07:35:38;;;;;;;57.15;12.40;;;;;;;;;;5020522;28;20099;-72
2022/08/30 07:38:03;;;;;;;41.45;8.90;;;;;;;;;;5011793;28;20696;-74
2022/08/30 07:40:28;;;;;;;33.45;8.60;;;;;;;;;;5015709;28;20081;-75
2022/08/30 07:42:54;;;;;;;37.28;7.68;;;;;;;;;;5013644;28;20026;-74
2022/08/30 07:45:19;;;;;;;17.35;7.38;;;;;;;;;;5015918;28;20650;-73
2022/08/30 07:47:44;;;;;;;30.00;7.05;;;;;;;;;;5019728;28;20034;-72
2022/08/30 07:50:10;;;;;;;16.38;6.28;;;;;;;;;;5010331;28;20034;-74
2022/08/30 07:52:35;;;;;;;11.73;5.85;;;;;;;;;;5017460;28;20041;-73
2022/08/30 07:55:00;;;;;;;15.80;6.70;;;;;;;;;;5017783;28;20474;-72
2022/08/30 07:57:26;;;;;;;7.38;4.72;;;;;;;;;;5016232;28;20024;-72
2022/08/30 07:59:51;;;;;;;7.97;4.85;;;;;;;;;;4999816;28;20025;-72
2022/08/30 08:02:17;;;;;;;10.60;5.15;;;;;;;;;;5011246;28;20182;-72
2022/08/30 08:04:42;;;;;;;9.95;5.35;;;;;;;;;;5013257;28;20064;-72
2022/08/30 08:07:08;;;;;;;7.82;5.18;;;;;;;;;;5015661;28;20025;-71
2022/08/30 08:09:34;;;;;;;8.60;4.65;;;;;;;;;;5017766;28;20083;-74
2022/08/30 08:11:59;;;;;;;10.35;4.68;;;;;;;;;;5023910;28;20021;-73
2022/08/30 08:14:24;;;;;;;7.50;3.90;;;;;;;;;;5021466;28;20171;-73
2022/08/30 08:16:50;;;;;;;9.30;5.03;;;;;;;;;;5020060;28;20041;-73
2022/08/30 08:19:16;;;;;;;8.38;4.20;;;;;;;;;;5018243;28;20048;-73
2022/08/30 08:21:41;;;;;;;9.10;4.10;;;;;;;;;;5012411;28;20134;-73
2022/08/30 08:24:07;;;;;;;16.47;4.93;;;;;;;;;;5013580;28;20026;-71
2022/08/30 08:26:35;;;;;;;5.65;3.40;;;;;;;;;;5015946;28;20295;-73
2022/08/30 08:29:00;;;;;;;6.70;3.60;;;;;;;;;;5018381;28;20051;-73
2022/08/30 08:31:27;;;;;;;6.63;3.30;;;;;;;;;;5017621;28;20034;-71
2022/08/30 08:33:52;;;;;;;6.72;3.75;;;;;;;;;;5012249;28;20021;-73
2022/08/30 08:36:17;;;;;;;8.30;3.60;;;;;;;;;;5016110;28;20546;-73
2022/08/30 08:38:43;;;;;;;8.13;3.90;;;;;;;;;;5017890;28;20042;-73
2022/08/30 08:41:09;;;;;;;6.00;3.10;;;;;;;;;;5017129;28;20091;-71
2022/08/30 08:43:36;;;;;;;14.80;3.42;;;;;;;;;;5011435;28;20397;-72
2022/08/30 08:46:15;;;;;;;16.52;3.45;;;;;;;;;;5020317;28;20416;-74
2022/08/30 08:48:42;;;;;;;7.90;3.20;;;;;;;;;;5019574;28;20026;-74
2022/08/30 08:53:59;;;;;;;5.22;3.25;;;;;;;;;;5018626;28;20520;-75
2022/08/30 08:56:25;;;;;;;7.38;2.83;;;;;;;;;;5014785;28;20021;-72
2022/08/30 08:58:52;;;;;;;6.80;2.65;;;;;;;;;;5021459;28;20050;-73
2022/08/30 09:01:19;;;;;;;7.55;2.33;;;;;;;;;;5019156;28;20041;-73
2022/08/30 09:03:44;;;;;;;6.38;3.00;;;;;;;;;;5016096;28;20556;-71
2022/08/30 09:06:27;;;;;;;5.38;2.45;;;;;;;;;;5023356;28;20123;-72
2022/08/30 09:08:52;;;;;;;6.47;3.42;;;;;;;;;;5016548;28;20026;-70
2022/08/30 09:11:25;;;;;;;5.35;1.88;;;;;;;;;;5011363;28;20341;-71
2022/08/30 09:13:50;;;;;;;4.65;2.53;;;;;;;;;;5014275;28;20026;-75
2022/08/30 09:16:34;;;;;;;7.03;3.00;;;;;;;;;;5016775;28;20017;-74
2022/08/30 09:18:59;;;;;;;5.68;2.80;;;;;;;;;;5014126;28;20112;-72
2022/08/30 09:21:25;;;;;;;5.72;2.40;;;;;;;;;;5018800;28;20037;-75
2022/08/30 09:23:55;;;;;;;11.77;2.80;;;;;;;;;;5017389;28;20021;-74
2022/08/30 09:26:31;;;;;;;4.82;2.33;;;;;;;;;;5010162;28;20515;-74
2022/08/30 09:28:58;;;;;;;6.85;2.90;;;;;;;;;;5014317;28;20733;-74
2022/08/30 09:31:25;;;;;;;4.43;2.40;;;;;;;;;;5014971;28;20501;-70
2022/08/30 09:34:07;;;;;;;5.95;2.45;;;;;;;;;;5017332;28;20058;-70
2022/08/30 09:36:32;;;;;;;6.18;2.58;;;;;;;;;;5010670;28;20601;-72
2022/08/30 09:39:05;;;;;;;4.80;2.53;;;;;;;;;;5011833;28;20030;-75
2022/08/30 09:41:36;;;;;;;9.52;2.65;;;;;;;;;;5014229;28;20329;-71
2022/08/30 09:44:04;;;;;;;6.72;2.45;;;;;;;;;;5017214;28;20532;-70
2022/08/30 09:46:30;;;;;;;8.90;2.47;;;;;;;;;;5014007;28;20029;-73
2022/08/30 09:48:55;;;;;;;8.07;2.35;;;;;;;;;;5018837;28;20060;-73
2022/08/30 09:51:29;;;;;;;5.40;2.03;;;;;;;;;;5016784;28;20437;-73
2022/08/30 09:53:54;;;;;;;4.75;2.83;;;;;;;;;;5010559;28;20291;-74
2022/08/30 09:56:29;;;;;;;4.63;2.20;;;;;;;;;;5022863;28;20495;-73
2022/08/30 09:59:14;;;;;;;6.20;1.92;;;;;;;;;;5013106;28;20069;-71
2022/08/30 10:01:49;;;;;;;9.70;2.05;;;;;;;;;;4997915;28;20065;-76
2022/08/30 10:04:27;;;;;;;3.88;2.10;;;;;;;;;;5012400;28;20030;-77
2022/08/30 10:07:16;;;;;;;3.08;2.30;;;;;;;;;;5028303;28;20033;-76
2022/08/30 10:10:01;;;;;;;6.18;2.45;;;;;;;;;;5009338;28;21478;-73
2022/08/30 10:12:31;;;;;;;6.97;2.45;;;;;;;;;;5009303;28;20041;-75
2022/08/30 10:14:56;;;;;;;6.03;2.30;;;;;;;;;;5014948;28;20037;-75
2022/08/30 10:17:39;;;;;;;3.28;2.03;;;;;;;;;;5018861;28;20029;-75
2022/08/30 10:20:13;;;;;;;7.57;2.42;;;;;;;;;;5017930;28;20041;-72
2022/08/30 10:22:57;;;;;;;7.90;2.45;;;;;;;;;;5020596;28;20071;-75
2022/08/30 10:25:29;;;;;;;4.32;1.90;;;;;;;;;;5007221;28;20040;-76
2022/08/30 10:27:57;;;;;;;3.27;1.93;;;;;;;;;;5009201;28;20065;-74
2022/08/30 10:30:23;;;;;;;8.85;2.67;;;;;;;;;;5013356;28;21199;-76
2022/08/30 10:32:48;;;;;;;3.67;2.10;;;;;;;;;;5014017;28;20021;-76
2022/08/30 10:35:16;;;;;;;4.17;2.40;;;;;;;;;;5017340;28;20052;-76
2022/08/30 10:37:53;;;;;;;6.78;2.50;;;;;;;;;;5020528;28;20037;-72
2022/08/30 10:43:17;;;;;;;5.28;2.47;;;;;;;;;;5015696;28;20092;-75
2022/08/30 10:45:45;;;;;;;5.10;1.73;;;;;;;;;;5017356;28;20036;-74
2022/08/30 10:48:23;;;;;;;4.43;2.13;;;;;;;;;;5024151;28;20457;-73
2022/08/30 10:50:52;;;;;;;3.97;1.88;;;;;;;;;;5016476;28;20037;-77
2022/08/30 10:53:21;;;;;;;4.05;1.90;;;;;;;;;;5016147;28;20026;-73
2022/08/30 10:55:49;;;;;;;5.47;2.20;;;;;;;;;;5016508;28;20068;-73
2022/08/30 10:58:16;;;;;;;3.97;1.85;;;;;;;;;;5017063;28;20029;-76
2022/08/30 11:01:01;;;;;;;3.03;1.92;;;;;;;;;;5011447;28;20029;-73
2022/08/30 11:03:26;;;;;;;6.53;2.00;;;;;;;;;;5006578;28;20025;-76
2022/08/30 11:06:09;;;;;;;5.30;2.43;;;;;;;;;;5008977;28;20032;-78
2022/08/30 11:08:54;;;;;;;3.90;1.75;;;;;;;;;;5017009;28;20953;-76
2022/08/30 11:11:31;;;;;;;3.80;1.67;;;;;;;;;;5013102;28;20124;-75
2022/08/30 11:14:00;;;;;;;3.22;1.60;;;;;;;;;;5003005;28;20022;-76
2022/08/30 11:16:36;;;;;;;2.78;1.65;;;;;;;;;;5011403;28;20057;-74
2022/08/30 11:19:02;;;;;;;5.93;1.92;;;;;;;;;;5013023;28;20041;-75
2022/08/30 11:21:35;;;;;;;3.53;1.90;;;;;;;;;;5018246;28;20033;-74
2022/08/30 11:24:02;;;;;;;4.70;2.45;;;;;;;;;;5014964;28;20531;-72
2022/08/30 11:26:49;;;;;;;4.32;1.63;;;;;;;;;;5008644;28;20054;-73
2022/08/30 11:29:35;;;;;;;6.18;1.98;;;;;;;;;;5016568;28;20026;-74
2022/08/30 11:32:20;;;;;;;3.22;1.77;;;;;;;;;;5021582;28;20030;-74
2022/08/30 11:34:45;;;;;;;4.88;1.85;;;;;;;;;;5019493;28;20065;-74
2022/08/30 11:37:29;;;;;;;4.37;2.00;;;;;;;;;;5013210;28;20481;-75
2022/08/30 11:39:56;;;;;;;7.72;3.03;;;;;;;;;;5017420;28;20293;-71
2022/08/30 11:42:26;;;;;;;4.53;2.03;;;;;;;;;;5021873;28;20033;-72
2022/08/30 11:44:51;;;;;;;6.65;2.03;;;;;;;;;;5020761;28;20473;-77
2022/08/30 11:47:35;;;;;;;3.10;1.48;;;;;;;;;;5020208;28;20033;-74
2022/08/30 11:50:06;;;;;;;7.20;1.83;;;;;;;;;;5017454;28;20202;-76
2022/08/30 11:52:40;;;;;;;8.63;1.67;;;;;;;;;;5022031;28;20079;-76
2022/08/30 11:55:35;;;;;;;4.35;1.80;;;;;;;;;;5020237;28;20572;-74
2022/08/30 11:58:04;;;;;;;5.30;2.47;;;;;;;;;;5015387;28;20047;-73
2022/08/30 12:00:38;;;;;;;3.97;1.60;;;;;;;;;;5021269;28;20030;-73
2022/08/30 12:03:25;;;;;;;3.28;1.63;;;;;;;;;;5012987;28;20202;-73
2022/08/30 12:05:53;;;;;;;5.45;1.88;;;;;;;;;;5019899;28;20041;-71
2022/08/30 12:08:18;;;;;;;2.30;1.38;;;;;;;;;;5022595;28;20022;-73
2022/08/30 12:10:54;;;;;;;6.37;1.50;;;;;;;;;;5022936;28;20050;-72
2022/08/30 12:13:37;;;;;;;4.85;1.85;;;;;;;;;;5005539;28;20286;-77
2022/08/30 12:16:20;;;;;;;4.32;2.08;;;;;;;;;;5012992;28;20112;-72
2022/08/30 12:18:46;;;;;;;3.13;1.63;;;;;;;;;;5004986;28;20406;-75
2022/08/30 12:21:20;;;;;;;8.27;1.77;;;;;;;;;;5013489;28;20159;-76
2022/08/30 12:24:12;;;;;;;3.60;1.50;;;;;;;;;;5014711;28;20029;-76
2022/08/30 12:26:41;;;;;;;7.05;1.73;;;;;;;;;;5021759;28;20448;-75
2022/08/30 12:29:18;;;;;;;6.40;1.80;;;;;;;;;;5016188;28;20045;-73
2022/08/30 12:31:46;;;;;;;6.25;2.05;;;;;;;;;;5018422;28;20083;-74
2022/08/30 12:34:32;;;;;;;5.43;1.92;;;;;;;;;;5014342;28;20113;-74
2022/08/30 12:37:19;;;;;;;4.20;2.00;;;;;;;;;;5015680;28;20034;-73
2022/08/30 12:39:45;;;;;;;6.85;2.63;;;;;;;;;;5013314;28;20021;-70
2022/08/30 12:42:12;;;;;;;11.55;2.28;;;;;;;;;;5008338;28;20037;-74
2022/08/30 12:44:38;;;;;;;4.38;1.40;;;;;;;;;;5013165;28;20037;-72
2022/08/30 12:47:04;;;;;;;2.72;1.60;;;;;;;;;;5011023;28;20619;-71
2022/08/30 12:49:31;;;;;;;4.00;2.00;;;;;;;;;;5014433;28;20393;-73
2022/08/30 12:52:14;;;;;;;4.22;1.55;;;;;;;;;;5009475;28;20025;-74
2022/08/30 12:54:39;;;;;;;5.03;1.52;;;;;;;;;;5018042;28;20017;-74
2022/08/30 12:57:06;;;;;;;3.80;1.70;;;;;;;;;;5015291;28;20417;-74
2022/08/30 12:59:42;;;;;;;3.95;1.98;;;;;;;;;;5012398;28;20314;-74
2022/08/30 13:02:12;;;;;;;2.13;1.42;;;;;;;;;;5018972;28;20021;-74
2022/08/30 13:04:38;;;;;;;6.95;1.77;;;;;;;;;;5013895;28;20045;-73
2022/08/30 13:07:03;;;;;;;4.00;1.50;;;;;;;;;;5012352;28;20478;-74
2022/08/30 13:09:28;;;;;;;3.67;1.35;;;;;;;;;;5014563;28;20056;-74
2022/08/30 13:11:54;;;;;;;3.72;1.58;;;;;;;;;;5015353;28;20033;-72
2022/08/30 13:14:19;;;;;;;2.15;1.25;;;;;;;;;;5020226;28;20059;-71
2022/08/30 13:16:45;;;;;;;2.67;1.43;;;;;;;;;;5024289;28;20026;-74
2022/08/30 13:19:29;;;;;;;5.13;1.85;;;;;;;;;;5021867;28;20274;-72
2022/08/30 13:21:55;;;;;;;3.35;1.90;;;;;;;;;;5022920;28;20033;-70
2022/08/30 13:24:22;;;;;;;6.00;1.65;;;;;;;;;;5020159;28;20513;-72
2022/08/30 13:26:47;;;;;;;2.63;1.50;;;;;;;;;;5013264;28;20049;-74
2022/08/30 13:29:20;;;;;;;4.22;1.65;;;;;;;;;;5018989;28;20041;-75
2022/08/30 13:31:45;;;;;;;4.15;1.48;;;;;;;;;;5021077;28;20112;-75
2022/08/30 13:34:11;;;;;;;4.65;1.52;;;;;;;;;;5015694;28;20375;-73
2022/08/30 13:36:38;;;;;;;4.60;1.35;;;;;;;;;;5015579;28;20413;-71
2022/08/30 13:39:04;;;;;;;4.78;1.50;;;;;;;;;;5014247;28;20037;-73
2022/08/30 13:41:29;;;;;;;3.67;1.30;;;;;;;;;;5020628;28;20489;-73
2022/08/30 13:43:55;;;;;;;1.92;1.23;;;;;;;;;;5020064;28;20043;-72
2022/08/30 13:46:21;;;;;;;4.63;1.92;;;;;;;;;;5018593;28;20054;-76
2022/08/30 13:48:47;;;;;;;3.15;1.30;;;;;;;;;;5019659;28;20030;-71
2022/08/30 13:51:12;;;;;;;3.63;1.67;;;;;;;;;;5014625;28;20030;-72
2022/08/30 13:53:38;;;;;;;3.17;1.60;;;;;;;;;;5016633;28;20033;-73
2022/08/30 13:56:04;;;;;;;1.70;1.25;;;;;;;;;;5018059;28;20270;-72
2022/08/30 13:58:30;;;;;;;2.42;1.40;;;;;;;;;;5020129;28;20025;-76
2022/08/30 14:00:56;;;;;;;3.13;1.75;;;;;;;;;;5018503;28;20462;-74
2022/08/30 14:03:21;;;;;;;4.30;1.48;;;;;;;;;;5018226;28;20125;-72
2022/08/30 14:05:46;;;;;;;4.82;2.15;;;;;;;;;;5020850;28;20037;-72
2022/08/30 14:08:13;;;;;;;4.40;1.63;;;;;;;;;;5022961;28;20393;-74
2022/08/30 14:10:39;;;;;;;4.15;1.60;;;;;;;;;;5020697;28;20034;-75
2022/08/30 14:13:05;;;;;;;3.38;1.58;;;;;;;;;;5020089;28;20032;-74
2022/08/30 14:15:31;;;;;;;3.22;1.50;;;;;;;;;;5018771;28;20037;-74
2022/08/30 14:17:57;;;;;;;3.35;1.58;;;;;;;;;;5020263;28;20029;-71
2022/08/30 14:20:22;;;;;;;4.37;1.37;;;;;;;;;;5019469;28;20046;-74
2022/08/30 14:22:47;;;;;;;3.15;1.27;;;;;;;;;;5021547;28;20293;-74
2022/08/30 14:25:13;;;;;;;3.43;1.70;;;;;;;;;;5021020;28;20405;-72
2022/08/30 14:27:38;;;;;;;8.75;2.53;;;;;;;;;;5014723;28;20301;-73
2022/08/30 14:30:04;;;;;;;3.80;1.47;;;;;;;;;;5020072;28;20039;-72
2022/08/30 14:32:29;;;;;;;2.90;1.50;;;;;;;;;;5019354;28;20319;-73
2022/08/30 14:34:56;;;;;;;4.38;1.80;;;;;;;;;;5020399;28;20103;-74
2022/08/30 14:37:21;;;;;;;2.40;1.35;;;;;;;;;;5021215;28;20108;-73
2022/08/30 14:39:46;;;;;;;1.98;1.20;;;;;;;;;;5017808;28;20049;-74
2022/08/30 14:42:12;;;;;;;3.67;1.50;;;;;;;;;;5018941;28;21592;-75
2022/08/30 14:44:37;;;;;;;3.60;1.20;;;;;;;;;;5015175;28;20775;-70
2022/08/30 14:47:03;;;;;;;2.15;1.30;;;;;;;;;;5013945;28;20040;-72
2022/08/30 14:49:28;;;;;;;2.40;1.58;;;;;;;;;;5016940;28;20037;-72
2022/08/30 14:51:53;;;;;;;2.60;1.20;;;;;;;;;;5021180;28;20563;-73